YM Eternity — A8OS6 — position and weather

sailwx.info

Track history (hours):
 
Tides and Currents Weather Stations Pressure Air Temp Water Temp Dewpoint Dewpoint Depression Visibility Wind Speed Wind Dir Waves Ship Positions

YM Eternity

Last reported at 2018-Jul-15 11:46 UTC. Time now 2018-Jul-15 20:48 UTC.
Position S 06°46' E 112°45'.

Length 269 m; draft 10.7 m.

Type: Cargo ship. MMSI: 636013699.

Date/timePositionNaut miles runAvg speedWind from/ knotsBaromVisibWave heightAir tempDewpointWater temp
2018-Jul-15 11:46S 06°46' E 112°45'414.7
2018-Jul-15 11:30S 06°50' E 112°45'711.4
2018-Jul-15 10:55S 06°57' E 112°43'614.5
2018-Jul-15 10:30S 07°02' E 112°40'9 1.2
2018-Jul-15 02:40S 07°11' E 112°41'0 0.0
2018-Jul-14 06:44S 07°11' E 112°41'0 0.4
2018-Jul-14 06:29S 07°11' E 112°41'2 3.5
2018-Jul-14 05:49S 07°09' E 112°40'2 6.6
2018-Jul-14 05:27S 07°07' E 112°39'4 9.4
2018-Jul-14 05:00S 07°03' E 112°40'610.3
2018-Jul-14 04:28S 06°58' E 112°43'7 8.7
2018-Jul-14 03:41S 06°51' E 112°45'0 1.4
2018-Jul-14 03:30S 06°51' E 112°45'3 4.6
2018-Jul-14 02:56S 06°48' E 112°45'812.5
2018-Jul-14 02:17S 06°42' E 112°40'  
2018-Jul-10 06:04N 01°19' E 104°41'117.0
2018-Jul-10 05:59N 01°20' E 104°40'816.4
2018-Jul-10 05:29N 01°23' E 104°32'1014.7
2018-Jul-10 04:49N 01°20' E 104°23'513.1
2018-Jul-10 04:29N 01°17' E 104°19'712.8
2018-Jul-10 03:56N 01°16' E 104°13'613.6
2018-Jul-10 03:28N 01°15' E 104°06'612.7
2018-Jul-10 03:00N 01°14' E 104°00'713.7
2018-Jul-10 02:30N 01°13' E 103°54'4 8.5
2018-Jul-10 02:00N 01°16' E 103°50'0 0.3
2018-Jul-10 01:30N 01°16' E 103°50'0 0.0
2018-Jul-10 01:00N 01°16' E 103°50'0 0.0
2018-Jul-10 00:27N 01°16' E 103°50'0 0.0
2018-Jul-09 23:58N 01°16' E 103°50'0 0.0
2018-Jul-09 23:30N 01°16' E 103°50'0 0.0
2018-Jul-09 23:00N 01°16' E 103°50'0 0.0
2018-Jul-09 22:30N 01°16' E 103°50'0 0.0
2018-Jul-09 22:00N 01°16' E 103°50'0 0.0
2018-Jul-09 21:30N 01°16' E 103°50'0 0.0
2018-Jul-09 21:00N 01°16' E 103°50'0 0.0
2018-Jul-09 20:30N 01°16' E 103°50'0 0.0
2018-Jul-09 20:00N 01°16' E 103°50'0 0.0
2018-Jul-09 19:30N 01°16' E 103°50'0 0.0
2018-Jul-09 19:00N 01°16' E 103°50'0 0.0
2018-Jul-09 18:30N 01°16' E 103°50'0 0.0
2018-Jul-09 18:00N 01°16' E 103°50'0 0.0
2018-Jul-09 17:27N 01°16' E 103°50'0 0.0
2018-Jul-09 16:57N 01°16' E 103°50'0 0.0
2018-Jul-09 16:28N 01°16' E 103°50'0 0.0
2018-Jul-09 16:00N 01°16' E 103°50'0 0.0
2018-Jul-09 15:30N 01°16' E 103°50'0 0.0
2018-Jul-09 15:00N 01°16' E 103°50'2 3.2
2018-Jul-09 14:30N 01°15' E 103°52'3 6.4
2018-Jul-09 14:00N 01°14' E 103°55'510.3
2018-Jul-09 13:30N 01°16' E 103°60'712.7
2018-Jul-09 12:59N 01°17' E 104°06'613.0
2018-Jul-09 12:30N 01°18' E 104°12'713.5
2018-Jul-09 11:59N 01°19' E 104°19'714.0
2018-Jul-09 11:27N 01°23' E 104°25'713.9
2018-Jul-09 10:56N 01°28' E 104°30'  
Track history (hours):
 
Tides and Currents Weather Stations Pressure Air Temp Water Temp Dewpoint Dewpoint Depression Visibility Wind Speed Wind Dir Waves Ship Positions

YM Eternity

Last reported at 2018-Jul-15 11:46 UTC. Time now 2018-Jul-15 20:48 UTC.
Position S 06°46' E 112°45'.

Length 269 m; draft 10.7 m.

Type: Cargo ship. MMSI: 636013699.

Date/timePositionNaut miles runAvg speedWind from/ knotsBaromVisibWave heightAir tempDewpointWater temp
2018-Jul-15 11:46S 06°46' E 112°45'414.7
2018-Jul-15 11:30S 06°50' E 112°45'711.4
2018-Jul-15 10:55S 06°57' E 112°43'614.5
2018-Jul-15 10:30S 07°02' E 112°40'9 1.2
2018-Jul-15 02:40S 07°11' E 112°41'0 0.0
2018-Jul-14 06:44S 07°11' E 112°41'0 0.4
2018-Jul-14 06:29S 07°11' E 112°41'2 3.5
2018-Jul-14 05:49S 07°09' E 112°40'2 6.6
2018-Jul-14 05:27S 07°07' E 112°39'4 9.4
2018-Jul-14 05:00S 07°03' E 112°40'610.3
2018-Jul-14 04:28S 06°58' E 112°43'7 8.7
2018-Jul-14 03:41S 06°51' E 112°45'0 1.4
2018-Jul-14 03:30S 06°51' E 112°45'3 4.6
2018-Jul-14 02:56S 06°48' E 112°45'812.5
2018-Jul-14 02:17S 06°42' E 112°40'  
2018-Jul-10 06:04N 01°19' E 104°41'117.0
2018-Jul-10 05:59N 01°20' E 104°40'816.4
2018-Jul-10 05:29N 01°23' E 104°32'1014.7
2018-Jul-10 04:49N 01°20' E 104°23'513.1
2018-Jul-10 04:29N 01°17' E 104°19'712.8
2018-Jul-10 03:56N 01°16' E 104°13'613.6
2018-Jul-10 03:28N 01°15' E 104°06'612.7
2018-Jul-10 03:00N 01°14' E 104°00'713.7
2018-Jul-10 02:30N 01°13' E 103°54'4 8.5
2018-Jul-10 02:00N 01°16' E 103°50'0 0.3
2018-Jul-10 01:30N 01°16' E 103°50'0 0.0
2018-Jul-10 01:00N 01°16' E 103°50'0 0.0
2018-Jul-10 00:27N 01°16' E 103°50'0 0.0
2018-Jul-09 23:58N 01°16' E 103°50'0 0.0
2018-Jul-09 23:30N 01°16' E 103°50'0 0.0
2018-Jul-09 23:00N 01°16' E 103°50'0 0.0
2018-Jul-09 22:30N 01°16' E 103°50'0 0.0
2018-Jul-09 22:00N 01°16' E 103°50'0 0.0
2018-Jul-09 21:30N 01°16' E 103°50'0 0.0
2018-Jul-09 21:00N 01°16' E 103°50'0 0.0
2018-Jul-09 20:30N 01°16' E 103°50'0 0.0
2018-Jul-09 20:00N 01°16' E 103°50'0 0.0
2018-Jul-09 19:30N 01°16' E 103°50'0 0.0
2018-Jul-09 19:00N 01°16' E 103°50'0 0.0
2018-Jul-09 18:30N 01°16' E 103°50'0 0.0
2018-Jul-09 18:00N 01°16' E 103°50'0 0.0
2018-Jul-09 17:27N 01°16' E 103°50'0 0.0
2018-Jul-09 16:57N 01°16' E 103°50'0 0.0
2018-Jul-09 16:28N 01°16' E 103°50'0 0.0
2018-Jul-09 16:00N 01°16' E 103°50'0 0.0
2018-Jul-09 15:30N 01°16' E 103°50'0 0.0
2018-Jul-09 15:00N 01°16' E 103°50'2 3.2
2018-Jul-09 14:30N 01°15' E 103°52'3 6.4
2018-Jul-09 14:00N 01°14' E 103°55'510.3
2018-Jul-09 13:30N 01°16' E 103°60'712.7
2018-Jul-09 12:59N 01°17' E 104°06'613.0
2018-Jul-09 12:30N 01°18' E 104°12'713.5
2018-Jul-09 11:59N 01°19' E 104°19'714.0
2018-Jul-09 11:27N 01°23' E 104°25'713.9
2018-Jul-09 10:56N 01°28' E 104°30'  

Dump ship's entire track history